sensor_id;sensor_type;location;lat;lon;timestamp;P1;durP1;ratioP1;P2;durP2;ratioP2
64816;SDS011;53289;45.602;11.904;2022-07-12T00:02:15;5.80;;;2.80;;
64816;SDS011;53289;45.602;11.904;2022-07-12T00:04:41;5.50;;;3.30;;
64816;SDS011;53289;45.602;11.904;2022-07-12T00:07:06;3.60;;;2.95;;
64816;SDS011;53289;45.602;11.904;2022-07-12T00:09:32;7.32;;;3.55;;
64816;SDS011;53289;45.602;11.904;2022-07-12T00:11:59;5.65;;;3.45;;
64816;SDS011;53289;45.602;11.904;2022-07-12T00:14:25;5.70;;;3.15;;
64816;SDS011;53289;45.602;11.904;2022-07-12T00:16:51;5.05;;;3.20;;
64816;SDS011;53289;45.602;11.904;2022-07-12T00:19:17;5.32;;;3.20;;
64816;SDS011;53289;45.602;11.904;2022-07-12T00:21:43;8.10;;;3.20;;
64816;SDS011;53289;45.602;11.904;2022-07-12T00:24:09;6.25;;;3.20;;
64816;SDS011;53289;45.602;11.904;2022-07-12T00:26:36;5.88;;;2.92;;
64816;SDS011;53289;45.602;11.904;2022-07-12T00:29:02;4.75;;;3.22;;
64816;SDS011;53289;45.602;11.904;2022-07-12T00:31:28;3.78;;;2.80;;
64816;SDS011;53289;45.602;11.904;2022-07-12T00:33:54;5.15;;;3.35;;
64816;SDS011;53289;45.602;11.904;2022-07-12T00:36:20;5.50;;;3.20;;
64816;SDS011;53289;45.602;11.904;2022-07-12T00:38:46;3.70;;;3.03;;
64816;SDS011;53289;45.602;11.904;2022-07-12T00:41:12;4.75;;;3.10;;
64816;SDS011;53289;45.602;11.904;2022-07-12T00:43:38;4.93;;;3.33;;
64816;SDS011;53289;45.602;11.904;2022-07-12T00:46:04;4.03;;;3.08;;
64816;SDS011;53289;45.602;11.904;2022-07-12T00:48:33;5.30;;;3.42;;
64816;SDS011;53289;45.602;11.904;2022-07-12T00:51:02;4.45;;;2.95;;
64816;SDS011;53289;45.602;11.904;2022-07-12T00:53:28;4.10;;;2.47;;
64816;SDS011;53289;45.602;11.904;2022-07-12T00:55:58;3.25;;;2.38;;
64816;SDS011;53289;45.602;11.904;2022-07-12T00:58:24;4.82;;;2.88;;
64816;SDS011;53289;45.602;11.904;2022-07-12T01:00:51;3.92;;;2.75;;
64816;SDS011;53289;45.602;11.904;2022-07-12T01:03:20;4.15;;;2.90;;
64816;SDS011;53289;45.602;11.904;2022-07-12T01:05:46;3.60;;;2.42;;
64816;SDS011;53289;45.602;11.904;2022-07-12T01:08:12;4.03;;;2.60;;
64816;SDS011;53289;45.602;11.904;2022-07-12T01:10:40;3.13;;;2.70;;
64816;SDS011;53289;45.602;11.904;2022-07-12T01:13:08;4.82;;;3.25;;
64816;SDS011;53289;45.602;11.904;2022-07-12T01:15:34;5.07;;;3.72;;
64816;SDS011;53289;45.602;11.904;2022-07-12T01:18:00;4.60;;;3.22;;
64816;SDS011;53289;45.602;11.904;2022-07-12T01:20:29;3.95;;;2.80;;
64816;SDS011;53289;45.602;11.904;2022-07-12T01:22:56;3.40;;;2.85;;
64816;SDS011;53289;45.602;11.904;2022-07-12T01:25:23;5.55;;;3.28;;
64816;SDS011;53289;45.602;11.904;2022-07-12T01:27:50;3.10;;;2.80;;
64816;SDS011;53289;45.602;11.904;2022-07-12T01:30:16;3.00;;;2.70;;
64816;SDS011;53289;45.602;11.904;2022-07-12T01:32:42;4.18;;;2.70;;
64816;SDS011;53289;45.602;11.904;2022-07-12T01:35:09;4.55;;;2.72;;
64816;SDS011;53289;45.602;11.904;2022-07-12T01:37:36;4.50;;;3.00;;
64816;SDS011;53289;45.602;11.904;2022-07-12T01:40:07;4.00;;;3.00;;
64816;SDS011;53289;45.602;11.904;2022-07-12T01:42:35;3.33;;;2.90;;
64816;SDS011;53289;45.602;11.904;2022-07-12T01:45:02;6.35;;;2.95;;
64816;SDS011;53289;45.602;11.904;2022-07-12T01:47:29;5.28;;;3.10;;
64816;SDS011;53289;45.602;11.904;2022-07-12T01:49:56;6.20;;;3.60;;
64816;SDS011;53289;45.602;11.904;2022-07-12T01:52:23;5.63;;;3.50;;
64816;SDS011;53289;45.602;11.904;2022-07-12T01:54:49;6.22;;;3.60;;
64816;SDS011;53289;45.602;11.904;2022-07-12T01:57:16;7.28;;;4.00;;
64816;SDS011;53289;45.602;11.904;2022-07-12T01:59:42;4.72;;;3.55;;
64816;SDS011;53289;45.602;11.904;2022-07-12T02:02:09;3.78;;;3.08;;
64816;SDS011;53289;45.602;11.904;2022-07-12T02:04:35;5.30;;;3.17;;
64816;SDS011;53289;45.602;11.904;2022-07-12T02:07:02;4.90;;;3.60;;
64816;SDS011;53289;45.602;11.904;2022-07-12T02:09:30;4.28;;;3.20;;
64816;SDS011;53289;45.602;11.904;2022-07-12T02:11:56;4.43;;;3.25;;
64816;SDS011;53289;45.602;11.904;2022-07-12T02:14:23;4.43;;;3.78;;
64816;SDS011;53289;45.602;11.904;2022-07-12T02:16:49;8.63;;;3.85;;
64816;SDS011;53289;45.602;11.904;2022-07-12T02:19:15;4.60;;;3.38;;
64816;SDS011;53289;45.602;11.904;2022-07-12T02:21:41;5.78;;;4.07;;
64816;SDS011;53289;45.602;11.904;2022-07-12T02:24:07;4.10;;;3.70;;
64816;SDS011;53289;45.602;11.904;2022-07-12T02:26:36;5.63;;;3.80;;
64816;SDS011;53289;45.602;11.904;2022-07-12T02:29:03;5.32;;;4.03;;
64816;SDS011;53289;45.602;11.904;2022-07-12T02:31:30;4.43;;;3.70;;
64816;SDS011;53289;45.602;11.904;2022-07-12T02:33:56;5.72;;;4.10;;
64816;SDS011;53289;45.602;11.904;2022-07-12T02:36:23;5.70;;;4.75;;
64816;SDS011;53289;45.602;11.904;2022-07-12T02:38:49;6.65;;;3.90;;
64816;SDS011;53289;45.602;11.904;2022-07-12T02:41:16;8.65;;;5.10;;
64816;SDS011;53289;45.602;11.904;2022-07-12T02:43:41;6.55;;;4.60;;
64816;SDS011;53289;45.602;11.904;2022-07-12T02:46:08;6.13;;;4.78;;
64816;SDS011;53289;45.602;11.904;2022-07-12T02:48:36;5.45;;;4.07;;
64816;SDS011;53289;45.602;11.904;2022-07-12T02:51:03;4.88;;;3.90;;
64816;SDS011;53289;45.602;11.904;2022-07-12T02:53:30;7.90;;;4.95;;
64816;SDS011;53289;45.602;11.904;2022-07-12T02:55:58;7.40;;;4.85;;
64816;SDS011;53289;45.602;11.904;2022-07-12T02:58:24;7.55;;;5.50;;
64816;SDS011;53289;45.602;11.904;2022-07-12T03:00:50;6.65;;;4.90;;
64816;SDS011;53289;45.602;11.904;2022-07-12T03:03:16;7.43;;;5.47;;
64816;SDS011;53289;45.602;11.904;2022-07-12T03:05:42;7.20;;;5.05;;
64816;SDS011;53289;45.602;11.904;2022-07-12T03:08:09;6.40;;;5.10;;
64816;SDS011;53289;45.602;11.904;2022-07-12T03:10:36;4.82;;;3.90;;
64816;SDS011;53289;45.602;11.904;2022-07-12T03:13:03;5.43;;;4.63;;
64816;SDS011;53289;45.602;11.904;2022-07-12T03:15:30;6.35;;;4.22;;
64816;SDS011;53289;45.602;11.904;2022-07-12T03:17:57;7.55;;;4.75;;
64816;SDS011;53289;45.602;11.904;2022-07-12T03:20:24;8.25;;;4.45;;
64816;SDS011;53289;45.602;11.904;2022-07-12T03:22:50;5.63;;;4.10;;
64816;SDS011;53289;45.602;11.904;2022-07-12T03:25:19;7.32;;;4.68;;
64816;SDS011;53289;45.602;11.904;2022-07-12T03:27:46;8.32;;;4.63;;
64816;SDS011;53289;45.602;11.904;2022-07-12T03:30:12;6.47;;;4.35;;
64816;SDS011;53289;45.602;11.904;2022-07-12T03:32:38;5.57;;;4.28;;
64816;SDS011;53289;45.602;11.904;2022-07-12T03:35:05;6.88;;;4.30;;
64816;SDS011;53289;45.602;11.904;2022-07-12T03:37:47;7.38;;;6.15;;
64816;SDS011;53289;45.602;11.904;2022-07-12T03:40:15;7.13;;;4.77;;
64816;SDS011;53289;45.602;11.904;2022-07-12T03:42:42;5.32;;;4.38;;
64816;SDS011;53289;45.602;11.904;2022-07-12T03:45:09;7.05;;;4.35;;
64816;SDS011;53289;45.602;11.904;2022-07-12T03:47:36;8.30;;;5.00;;
64816;SDS011;53289;45.602;11.904;2022-07-12T03:50:03;6.97;;;5.28;;
64816;SDS011;53289;45.602;11.904;2022-07-12T03:52:31;6.78;;;5.13;;
64816;SDS011;53289;45.602;11.904;2022-07-12T03:54:58;11.25;;;7.57;;
64816;SDS011;53289;45.602;11.904;2022-07-12T03:57:24;8.50;;;6.07;;
64816;SDS011;53289;45.602;11.904;2022-07-12T03:59:51;8.60;;;5.72;;
64816;SDS011;53289;45.602;11.904;2022-07-12T04:02:18;7.53;;;5.22;;
64816;SDS011;53289;45.602;11.904;2022-07-12T04:04:47;7.20;;;5.05;;
64816;SDS011;53289;45.602;11.904;2022-07-12T04:07:13;10.02;;;6.47;;
64816;SDS011;53289;45.602;11.904;2022-07-12T04:09:39;10.30;;;6.57;;
64816;SDS011;53289;45.602;11.904;2022-07-12T04:12:05;8.25;;;5.22;;
64816;SDS011;53289;45.602;11.904;2022-07-12T04:14:31;10.38;;;6.43;;
64816;SDS011;53289;45.602;11.904;2022-07-12T04:16:58;11.38;;;7.43;;
64816;SDS011;53289;45.602;11.904;2022-07-12T04:19:24;8.60;;;5.88;;
64816;SDS011;53289;45.602;11.904;2022-07-12T04:21:53;9.30;;;5.82;;
64816;SDS011;53289;45.602;11.904;2022-07-12T04:24:21;7.75;;;5.00;;
64816;SDS011;53289;45.602;11.904;2022-07-12T04:26:48;9.02;;;5.80;;
64816;SDS011;53289;45.602;11.904;2022-07-12T04:29:15;7.35;;;5.35;;
64816;SDS011;53289;45.602;11.904;2022-07-12T04:31:41;10.52;;;5.40;;
64816;SDS011;53289;45.602;11.904;2022-07-12T04:34:07;9.93;;;5.30;;
64816;SDS011;53289;45.602;11.904;2022-07-12T04:36:33;10.95;;;5.53;;
64816;SDS011;53289;45.602;11.904;2022-07-12T04:38:59;9.77;;;4.80;;
64816;SDS011;53289;45.602;11.904;2022-07-12T04:41:25;6.97;;;4.50;;
64816;SDS011;53289;45.602;11.904;2022-07-12T04:43:51;8.63;;;5.18;;
64816;SDS011;53289;45.602;11.904;2022-07-12T04:46:17;8.07;;;5.32;;
64816;SDS011;53289;45.602;11.904;2022-07-12T04:48:43;6.78;;;4.65;;
64816;SDS011;53289;45.602;11.904;2022-07-12T04:51:09;7.65;;;4.90;;
64816;SDS011;53289;45.602;11.904;2022-07-12T04:53:35;6.90;;;4.78;;
64816;SDS011;53289;45.602;11.904;2022-07-12T04:56:00;7.60;;;4.47;;
64816;SDS011;53289;45.602;11.904;2022-07-12T04:58:27;8.02;;;4.55;;
64816;SDS011;53289;45.602;11.904;2022-07-12T05:00:53;6.13;;;4.55;;
64816;SDS011;53289;45.602;11.904;2022-07-12T05:03:19;8.65;;;4.43;;
64816;SDS011;53289;45.602;11.904;2022-07-12T05:05:44;9.73;;;4.47;;
64816;SDS011;53289;45.602;11.904;2022-07-12T05:08:10;7.35;;;4.32;;
64816;SDS011;53289;45.602;11.904;2022-07-12T05:10:36;9.27;;;4.60;;
64816;SDS011;53289;45.602;11.904;2022-07-12T05:13:02;5.40;;;4.25;;
64816;SDS011;53289;45.602;11.904;2022-07-12T05:15:28;5.07;;;3.60;;
64816;SDS011;53289;45.602;11.904;2022-07-12T05:17:53;6.95;;;4.25;;
64816;SDS011;53289;45.602;11.904;2022-07-12T05:20:19;6.97;;;3.97;;
64816;SDS011;53289;45.602;11.904;2022-07-12T05:22:45;7.88;;;4.30;;
64816;SDS011;53289;45.602;11.904;2022-07-12T05:25:11;9.07;;;4.00;;
64816;SDS011;53289;45.602;11.904;2022-07-12T05:27:37;6.20;;;3.72;;
64816;SDS011;53289;45.602;11.904;2022-07-12T05:30:03;7.85;;;4.38;;
64816;SDS011;53289;45.602;11.904;2022-07-12T05:32:29;9.45;;;4.05;;
64816;SDS011;53289;45.602;11.904;2022-07-12T05:34:55;6.47;;;3.83;;
64816;SDS011;53289;45.602;11.904;2022-07-12T05:37:21;6.32;;;4.18;;
64816;SDS011;53289;45.602;11.904;2022-07-12T05:39:50;8.75;;;4.03;;
64816;SDS011;53289;45.602;11.904;2022-07-12T05:42:19;9.05;;;4.05;;
64816;SDS011;53289;45.602;11.904;2022-07-12T05:44:45;5.65;;;3.95;;
64816;SDS011;53289;45.602;11.904;2022-07-12T05:47:11;6.55;;;3.97;;
64816;SDS011;53289;45.602;11.904;2022-07-12T05:49:38;8.27;;;4.10;;
64816;SDS011;53289;45.602;11.904;2022-07-12T05:52:04;7.60;;;3.97;;
64816;SDS011;53289;45.602;11.904;2022-07-12T05:54:49;6.15;;;4.07;;
64816;SDS011;53289;45.602;11.904;2022-07-12T05:57:15;8.40;;;3.90;;
64816;SDS011;53289;45.602;11.904;2022-07-12T05:59:41;7.15;;;3.63;;
64816;SDS011;53289;45.602;11.904;2022-07-12T06:02:08;8.68;;;4.10;;
64816;SDS011;53289;45.602;11.904;2022-07-12T06:04:35;6.28;;;4.13;;
64816;SDS011;53289;45.602;11.904;2022-07-12T06:07:02;8.05;;;3.97;;
64816;SDS011;53289;45.602;11.904;2022-07-12T06:09:28;5.28;;;3.40;;
64816;SDS011;53289;45.602;11.904;2022-07-12T06:11:54;6.88;;;4.00;;
64816;SDS011;53289;45.602;11.904;2022-07-12T06:14:20;7.05;;;4.35;;
64816;SDS011;53289;45.602;11.904;2022-07-12T06:16:46;5.63;;;3.53;;
64816;SDS011;53289;45.602;11.904;2022-07-12T06:19:12;6.00;;;3.88;;
64816;SDS011;53289;45.602;11.904;2022-07-12T06:21:37;6.35;;;3.80;;
64816;SDS011;53289;45.602;11.904;2022-07-12T06:24:04;7.18;;;4.22;;
64816;SDS011;53289;45.602;11.904;2022-07-12T06:26:30;6.38;;;3.72;;
64816;SDS011;53289;45.602;11.904;2022-07-12T06:28:56;4.85;;;3.75;;
64816;SDS011;53289;45.602;11.904;2022-07-12T06:31:22;7.55;;;3.90;;
64816;SDS011;53289;45.602;11.904;2022-07-12T06:33:51;5.80;;;3.60;;
64816;SDS011;53289;45.602;11.904;2022-07-12T06:36:17;8.10;;;4.07;;
64816;SDS011;53289;45.602;11.904;2022-07-12T06:38:43;5.57;;;3.80;;
64816;SDS011;53289;45.602;11.904;2022-07-12T06:41:09;5.55;;;3.70;;
64816;SDS011;53289;45.602;11.904;2022-07-12T06:43:35;7.35;;;3.67;;
64816;SDS011;53289;45.602;11.904;2022-07-12T06:46:00;4.75;;;3.28;;
64816;SDS011;53289;45.602;11.904;2022-07-12T06:48:26;6.97;;;3.40;;
64816;SDS011;53289;45.602;11.904;2022-07-12T06:50:52;7.38;;;3.28;;
64816;SDS011;53289;45.602;11.904;2022-07-12T06:53:18;4.65;;;3.22;;
64816;SDS011;53289;45.602;11.904;2022-07-12T06:55:45;5.15;;;3.05;;
64816;SDS011;53289;45.602;11.904;2022-07-12T06:58:11;5.22;;;2.90;;
64816;SDS011;53289;45.602;11.904;2022-07-12T07:00:37;6.25;;;3.40;;
64816;SDS011;53289;45.602;11.904;2022-07-12T07:03:06;5.03;;;3.25;;
64816;SDS011;53289;45.602;11.904;2022-07-12T07:05:32;6.05;;;3.00;;
64816;SDS011;53289;45.602;11.904;2022-07-12T07:07:58;8.70;;;3.10;;
64816;SDS011;53289;45.602;11.904;2022-07-12T07:10:23;3.78;;;2.80;;
64816;SDS011;53289;45.602;11.904;2022-07-12T07:12:49;3.53;;;2.50;;
64816;SDS011;53289;45.602;11.904;2022-07-12T07:15:15;4.50;;;2.92;;
64816;SDS011;53289;45.602;11.904;2022-07-12T07:17:41;4.88;;;2.80;;
64816;SDS011;53289;45.602;11.904;2022-07-12T07:20:11;5.47;;;2.75;;
64816;SDS011;53289;45.602;11.904;2022-07-12T07:22:37;5.93;;;3.00;;
64816;SDS011;53289;45.602;11.904;2022-07-12T07:25:04;5.32;;;2.70;;
64816;SDS011;53289;45.602;11.904;2022-07-12T07:27:31;5.55;;;2.72;;
64816;SDS011;53289;45.602;11.904;2022-07-12T07:29:57;3.80;;;2.53;;
64816;SDS011;53289;45.602;11.904;2022-07-12T07:32:42;4.07;;;2.88;;
64816;SDS011;53289;45.602;11.904;2022-07-12T07:35:10;6.20;;;3.10;;
64816;SDS011;53289;45.602;11.904;2022-07-12T07:37:36;6.57;;;3.00;;
64816;SDS011;53289;45.602;11.904;2022-07-12T07:40:02;5.93;;;3.00;;
64816;SDS011;53289;45.602;11.904;2022-07-12T07:42:29;5.63;;;2.67;;
64816;SDS011;53289;45.602;11.904;2022-07-12T07:44:55;7.05;;;2.80;;
64816;SDS011;53289;45.602;11.904;2022-07-12T07:47:21;4.35;;;2.95;;
64816;SDS011;53289;45.602;11.904;2022-07-12T07:49:47;3.55;;;2.60;;
64816;SDS011;53289;45.602;11.904;2022-07-12T07:52:12;6.25;;;2.80;;
64816;SDS011;53289;45.602;11.904;2022-07-12T07:54:38;3.70;;;2.47;;
64816;SDS011;53289;45.602;11.904;2022-07-12T07:57:04;7.38;;;3.10;;
64816;SDS011;53289;45.602;11.904;2022-07-12T07:59:30;6.45;;;3.03;;
64816;SDS011;53289;45.602;11.904;2022-07-12T08:01:56;7.70;;;2.95;;
64816;SDS011;53289;45.602;11.904;2022-07-12T08:04:22;7.55;;;3.00;;
64816;SDS011;53289;45.602;11.904;2022-07-12T08:06:48;12.00;;;3.72;;
64816;SDS011;53289;45.602;11.904;2022-07-12T08:09:15;14.23;;;3.70;;
64816;SDS011;53289;45.602;11.904;2022-07-12T08:11:42;7.22;;;3.22;;
64816;SDS011;53289;45.602;11.904;2022-07-12T08:14:09;7.40;;;3.13;;
64816;SDS011;53289;45.602;11.904;2022-07-12T08:16:36;3.35;;;2.80;;
64816;SDS011;53289;45.602;11.904;2022-07-12T08:19:03;4.93;;;2.85;;
64816;SDS011;53289;45.602;11.904;2022-07-12T08:21:30;3.58;;;2.90;;
64816;SDS011;53289;45.602;11.904;2022-07-12T08:23:55;5.07;;;2.85;;
64816;SDS011;53289;45.602;11.904;2022-07-12T08:26:22;4.55;;;2.80;;
64816;SDS011;53289;45.602;11.904;2022-07-12T08:28:48;2.75;;;2.30;;
64816;SDS011;53289;45.602;11.904;2022-07-12T08:31:14;3.13;;;2.53;;
64816;SDS011;53289;45.602;11.904;2022-07-12T08:33:41;6.65;;;2.67;;
64816;SDS011;53289;45.602;11.904;2022-07-12T08:36:07;3.90;;;2.65;;
64816;SDS011;53289;45.602;11.904;2022-07-12T08:38:34;6.10;;;2.50;;
64816;SDS011;53289;45.602;11.904;2022-07-12T08:41:02;5.07;;;2.42;;
64816;SDS011;53289;45.602;11.904;2022-07-12T08:43:32;2.10;;;2.00;;
64816;SDS011;53289;45.602;11.904;2022-07-12T08:46:04;3.95;;;2.20;;
64816;SDS011;53289;45.602;11.904;2022-07-12T08:48:37;4.60;;;2.80;;
64816;SDS011;53289;45.602;11.904;2022-07-12T08:51:08;3.95;;;2.30;;
64816;SDS011;53289;45.602;11.904;2022-07-12T08:53:35;3.47;;;2.40;;
64816;SDS011;53289;45.602;11.904;2022-07-12T08:56:02;5.63;;;2.60;;
64816;SDS011;53289;45.602;11.904;2022-07-12T08:58:29;3.20;;;1.98;;
64816;SDS011;53289;45.602;11.904;2022-07-12T09:00:55;2.83;;;2.08;;
64816;SDS011;53289;45.602;11.904;2022-07-12T09:03:21;3.95;;;2.33;;
64816;SDS011;53289;45.602;11.904;2022-07-12T09:05:49;3.65;;;2.33;;
64816;SDS011;53289;45.602;11.904;2022-07-12T09:08:26;2.85;;;2.35;;
64816;SDS011;53289;45.602;11.904;2022-07-12T09:11:01;3.00;;;2.28;;
64816;SDS011;53289;45.602;11.904;2022-07-12T09:13:47;4.00;;;2.00;;
64816;SDS011;53289;45.602;11.904;2022-07-12T09:16:17;4.35;;;2.20;;
64816;SDS011;53289;45.602;11.904;2022-07-12T09:18:45;3.67;;;2.20;;
64816;SDS011;53289;45.602;11.904;2022-07-12T09:21:29;3.25;;;2.20;;
64816;SDS011;53289;45.602;11.904;2022-07-12T09:23:56;4.97;;;2.40;;
64816;SDS011;53289;45.602;11.904;2022-07-12T09:26:24;2.55;;;2.08;;
64816;SDS011;53289;45.602;11.904;2022-07-12T09:29:06;5.55;;;2.13;;
64816;SDS011;53289;45.602;11.904;2022-07-12T09:31:38;3.30;;;2.20;;
64816;SDS011;53289;45.602;11.904;2022-07-12T09:34:27;2.83;;;2.20;;
64816;SDS011;53289;45.602;11.904;2022-07-12T09:37:14;5.57;;;2.42;;
64816;SDS011;53289;45.602;11.904;2022-07-12T09:39:41;4.07;;;2.10;;
64816;SDS011;53289;45.602;11.904;2022-07-12T09:42:09;4.85;;;2.13;;
64816;SDS011;53289;45.602;11.904;2022-07-12T09:44:36;3.50;;;2.08;;
64816;SDS011;53289;45.602;11.904;2022-07-12T09:47:02;3.30;;;2.28;;
64816;SDS011;53289;45.602;11.904;2022-07-12T09:49:29;4.55;;;1.92;;
64816;SDS011;53289;45.602;11.904;2022-07-12T09:51:56;2.20;;;1.98;;
64816;SDS011;53289;45.602;11.904;2022-07-12T09:54:25;2.13;;;2.03;;
64816;SDS011;53289;45.602;11.904;2022-07-12T09:56:53;4.78;;;2.08;;
64816;SDS011;53289;45.602;11.904;2022-07-12T09:59:22;3.58;;;2.00;;
64816;SDS011;53289;45.602;11.904;2022-07-12T10:01:50;2.78;;;2.10;;
64816;SDS011;53289;45.602;11.904;2022-07-12T10:04:21;3.63;;;2.13;;
64816;SDS011;53289;45.602;11.904;2022-07-12T10:06:48;3.20;;;2.10;;
64816;SDS011;53289;45.602;11.904;2022-07-12T10:09:16;2.83;;;2.00;;
64816;SDS011;53289;45.602;11.904;2022-07-12T10:11:43;3.15;;;1.95;;
64816;SDS011;53289;45.602;11.904;2022-07-12T10:14:10;3.72;;;1.98;;
64816;SDS011;53289;45.602;11.904;2022-07-12T10:16:37;3.28;;;2.10;;
64816;SDS011;53289;45.602;11.904;2022-07-12T10:19:23;3.08;;;1.90;;
64816;SDS011;53289;45.602;11.904;2022-07-12T10:21:50;2.70;;;2.20;;
64816;SDS011;53289;45.602;11.904;2022-07-12T10:26:58;3.30;;;2.22;;
64816;SDS011;53289;45.602;11.904;2022-07-12T10:29:25;2.30;;;2.10;;
64816;SDS011;53289;45.602;11.904;2022-07-12T10:31:51;3.28;;;2.30;;
64816;SDS011;53289;45.602;11.904;2022-07-12T10:34:24;3.17;;;1.90;;
64816;SDS011;53289;45.602;11.904;2022-07-12T10:39:25;4.95;;;2.40;;
64816;SDS011;53289;45.602;11.904;2022-07-12T10:42:26;4.10;;;2.30;;
64816;SDS011;53289;45.602;11.904;2022-07-12T10:44:46;4.67;;;2.10;;
64816;SDS011;53289;45.602;11.904;2022-07-12T10:47:13;3.97;;;2.15;;
64816;SDS011;53289;45.602;11.904;2022-07-12T10:49:50;3.00;;;2.33;;
64816;SDS011;53289;45.602;11.904;2022-07-12T10:52:22;2.65;;;1.90;;
64816;SDS011;53289;45.602;11.904;2022-07-12T10:57:42;2.88;;;1.95;;
64816;SDS011;53289;45.602;11.904;2022-07-12T11:00:09;2.72;;;2.00;;
64816;SDS011;53289;45.602;11.904;2022-07-12T11:02:36;2.25;;;2.05;;
64816;SDS011;53289;45.602;11.904;2022-07-12T11:05:03;2.25;;;2.05;;
64816;SDS011;53289;45.602;11.904;2022-07-12T11:07:29;2.63;;;2.30;;
64816;SDS011;53289;45.602;11.904;2022-07-12T11:09:56;2.25;;;2.05;;
64816;SDS011;53289;45.602;11.904;2022-07-12T11:12:31;5.40;;;2.40;;
64816;SDS011;53289;45.602;11.904;2022-07-12T11:14:58;3.00;;;2.00;;
64816;SDS011;53289;45.602;11.904;2022-07-12T11:17:28;3.05;;;2.03;;
64816;SDS011;53289;45.602;11.904;2022-07-12T11:20:11;3.42;;;2.20;;
64816;SDS011;53289;45.602;11.904;2022-07-12T11:22:39;4.35;;;2.40;;
64816;SDS011;53289;45.602;11.904;2022-07-12T11:25:10;2.30;;;2.10;;
64816;SDS011;53289;45.602;11.904;2022-07-12T11:27:38;4.63;;;2.03;;
64816;SDS011;53289;45.602;11.904;2022-07-12T11:30:05;4.53;;;2.42;;
64816;SDS011;53289;45.602;11.904;2022-07-12T11:32:36;2.28;;;2.08;;
64816;SDS011;53289;45.602;11.904;2022-07-12T11:35:04;2.72;;;1.80;;
64816;SDS011;53289;45.602;11.904;2022-07-12T11:37:49;3.10;;;1.90;;
64816;SDS011;53289;45.602;11.904;2022-07-12T11:40:20;5.60;;;2.20;;
64816;SDS011;53289;45.602;11.904;2022-07-12T11:42:57;3.60;;;2.15;;
64816;SDS011;53289;45.602;11.904;2022-07-12T11:45:26;2.92;;;1.92;;
64816;SDS011;53289;45.602;11.904;2022-07-12T11:47:57;2.13;;;1.90;;
64816;SDS011;53289;45.602;11.904;2022-07-12T11:50:26;2.63;;;2.25;;
64816;SDS011;53289;45.602;11.904;2022-07-12T11:52:56;3.75;;;2.10;;
64816;SDS011;53289;45.602;11.904;2022-07-12T11:55:22;2.20;;;2.00;;
64816;SDS011;53289;45.602;11.904;2022-07-12T11:57:48;2.72;;;2.13;;
64816;SDS011;53289;45.602;11.904;2022-07-12T12:00:16;3.22;;;1.90;;
64816;SDS011;53289;45.602;11.904;2022-07-12T12:02:43;4.60;;;2.20;;
64816;SDS011;53289;45.602;11.904;2022-07-12T12:05:10;2.75;;;2.08;;
64816;SDS011;53289;45.602;11.904;2022-07-12T12:07:37;2.38;;;2.00;;
64816;SDS011;53289;45.602;11.904;2022-07-12T12:10:09;2.35;;;2.10;;
64816;SDS011;53289;45.602;11.904;2022-07-12T12:15:10;3.10;;;2.03;;
64816;SDS011;53289;45.602;11.904;2022-07-12T12:17:56;2.88;;;2.20;;
64816;SDS011;53289;45.602;11.904;2022-07-12T12:20:30;4.70;;;2.05;;
64816;SDS011;53289;45.602;11.904;2022-07-12T12:22:58;2.45;;;2.00;;
64816;SDS011;53289;45.602;11.904;2022-07-12T12:25:27;4.55;;;2.20;;
64816;SDS011;53289;45.602;11.904;2022-07-12T12:27:55;2.75;;;2.10;;
64816;SDS011;53289;45.602;11.904;2022-07-12T12:30:29;2.03;;;1.80;;
64816;SDS011;53289;45.602;11.904;2022-07-12T12:33:04;2.63;;;2.08;;
64816;SDS011;53289;45.602;11.904;2022-07-12T12:35:35;2.60;;;1.90;;
64816;SDS011;53289;45.602;11.904;2022-07-12T12:38:02;2.53;;;2.10;;
64816;SDS011;53289;45.602;11.904;2022-07-12T12:40:38;2.35;;;1.98;;
64816;SDS011;53289;45.602;11.904;2022-07-12T12:43:09;5.82;;;2.15;;
64816;SDS011;53289;45.602;11.904;2022-07-12T12:45:48;2.85;;;1.83;;
64816;SDS011;53289;45.602;11.904;2022-07-12T12:48:22;6.90;;;2.40;;
64816;SDS011;53289;45.602;11.904;2022-07-12T12:50:50;5.35;;;2.20;;
64816;SDS011;53289;45.602;11.904;2022-07-12T12:53:19;4.65;;;2.20;;
64816;SDS011;53289;45.602;11.904;2022-07-12T12:55:47;2.45;;;2.25;;
64816;SDS011;53289;45.602;11.904;2022-07-12T12:58:15;3.60;;;2.10;;
64816;SDS011;53289;45.602;11.904;2022-07-12T13:00:44;3.28;;;2.20;;
64816;SDS011;53289;45.602;11.904;2022-07-12T13:03:13;3.30;;;2.03;;
64816;SDS011;53289;45.602;11.904;2022-07-12T13:05:40;4.53;;;1.92;;
64816;SDS011;53289;45.602;11.904;2022-07-12T13:08:08;3.65;;;2.15;;
64816;SDS011;53289;45.602;11.904;2022-07-12T13:10:35;3.45;;;2.20;;
64816;SDS011;53289;45.602;11.904;2022-07-12T13:13:02;3.00;;;2.20;;
64816;SDS011;53289;45.602;11.904;2022-07-12T13:15:29;2.28;;;2.08;;
64816;SDS011;53289;45.602;11.904;2022-07-12T13:17:55;4.82;;;2.15;;
64816;SDS011;53289;45.602;11.904;2022-07-12T13:20:25;3.55;;;2.25;;
64816;SDS011;53289;45.602;11.904;2022-07-12T13:22:52;3.22;;;2.30;;
64816;SDS011;53289;45.602;11.904;2022-07-12T13:25:19;3.45;;;2.00;;
64816;SDS011;53289;45.602;11.904;2022-07-12T13:27:45;4.38;;;2.33;;
64816;SDS011;53289;45.602;11.904;2022-07-12T13:30:12;2.92;;;2.13;;
64816;SDS011;53289;45.602;11.904;2022-07-12T13:32:40;3.30;;;2.60;;
64816;SDS011;53289;45.602;11.904;2022-07-12T13:35:08;4.18;;;2.17;;
64816;SDS011;53289;45.602;11.904;2022-07-12T13:37:37;2.58;;;2.33;;
64816;SDS011;53289;45.602;11.904;2022-07-12T13:40:04;3.90;;;2.58;;
64816;SDS011;53289;45.602;11.904;2022-07-12T13:42:42;4.03;;;2.58;;
64816;SDS011;53289;45.602;11.904;2022-07-12T13:45:17;3.25;;;2.33;;
64816;SDS011;53289;45.602;11.904;2022-07-12T13:47:45;3.65;;;2.47;;
64816;SDS011;53289;45.602;11.904;2022-07-12T13:50:13;3.17;;;2.50;;
64816;SDS011;53289;45.602;11.904;2022-07-12T13:52:41;2.90;;;2.58;;
64816;SDS011;53289;45.602;11.904;2022-07-12T13:55:09;4.25;;;3.10;;
64816;SDS011;53289;45.602;11.904;2022-07-12T13:57:37;3.72;;;2.45;;
64816;SDS011;53289;45.602;11.904;2022-07-12T14:00:05;5.53;;;2.60;;
64816;SDS011;53289;45.602;11.904;2022-07-12T14:02:37;5.47;;;2.40;;
64816;SDS011;53289;45.602;11.904;2022-07-12T14:05:04;2.65;;;2.45;;
64816;SDS011;53289;45.602;11.904;2022-07-12T14:07:31;3.40;;;2.00;;
64816;SDS011;53289;45.602;11.904;2022-07-12T14:09:57;8.73;;;2.67;;
64816;SDS011;53289;45.602;11.904;2022-07-12T14:12:25;3.97;;;2.50;;
64816;SDS011;53289;45.602;11.904;2022-07-12T14:14:51;5.10;;;2.35;;
64816;SDS011;53289;45.602;11.904;2022-07-12T14:20:23;7.22;;;2.60;;
64816;SDS011;53289;45.602;11.904;2022-07-12T14:22:49;2.47;;;2.28;;
64816;SDS011;53289;45.602;11.904;2022-07-12T14:25:16;4.55;;;2.80;;
64816;SDS011;53289;45.602;11.904;2022-07-12T14:27:42;4.43;;;2.70;;
64816;SDS011;53289;45.602;11.904;2022-07-12T14:30:09;3.67;;;2.60;;
64816;SDS011;53289;45.602;11.904;2022-07-12T14:32:37;5.05;;;2.83;;
64816;SDS011;53289;45.602;11.904;2022-07-12T14:35:04;5.18;;;2.60;;
64816;SDS011;53289;45.602;11.904;2022-07-12T14:37:31;3.67;;;2.60;;
64816;SDS011;53289;45.602;11.904;2022-07-12T14:40:02;5.93;;;2.67;;
64816;SDS011;53289;45.602;11.904;2022-07-12T14:42:29;4.25;;;2.28;;
64816;SDS011;53289;45.602;11.904;2022-07-12T14:44:55;4.43;;;2.22;;
64816;SDS011;53289;45.602;11.904;2022-07-12T14:47:21;3.25;;;2.20;;
64816;SDS011;53289;45.602;11.904;2022-07-12T14:49:48;4.57;;;2.05;;
64816;SDS011;53289;45.602;11.904;2022-07-12T14:52:15;4.38;;;2.10;;